Council Blfs, Iowa
Current Conditions -  °F | °C
As of 10:52 PM on Sunday 21 Dec 2014 (Local Time) from KOMA Reporting Station
Drizzle Drizzle  
Wind Chill: 35°   Ceiling: 500
Heat Index: 43°   Visibility: 6mi
Dew Point: 41°   Wind: 18mph
Humidity: 93%   Direction: 170°S
Pressure: 29.66"   Gusts: NA
Location:  41.2617°N, 95.8608°W
Report Text: KOMA 220452Z 17016KT 6SM -DZ BR OVC005 06/05 A2966 RMK AO2 SLP049 P0000 T00610050
Loading
Personal Weather Stations






























Interactive Weather Map New forecast layout! Learn more

10-Day Weather Forecast

Advertisements
Track Severe Weather on mobile